Time;durP1;ratioP1;P1;durP2;ratioP2;P2;SDS_P1;SDS_P2;PMS_P1;PMS_P2;Temp;Humidity;BMP_temperature;BMP_pressure;BME280_temperature;BME280_humidity;BME280_pressure;Samples;Min_cycle;Max_cycle;Signal;HPM_P1;HPM_P2
2021/09/15 00:01:26;;;;;;;28.02;20.00;;;;;;;17.62;92.02;101191.06;4843560;29;20036;-72
2021/09/15 00:03:51;;;;;;;25.80;18.50;;;;;;;17.64;92.07;101193.63;4843207;29;20057;-60
2021/09/15 00:06:17;;;;;;;28.17;17.70;;;;;;;17.64;92.12;101194.47;4843585;29;20038;-64
2021/09/15 00:08:42;;;;;;;25.23;18.55;;;;;;;17.66;92.28;101189.88;4843322;29;20044;-68
2021/09/15 00:11:08;;;;;;;27.00;20.63;;;;;;;17.71;92.25;101188.69;4843818;29;20042;-67
2021/09/15 00:13:33;;;;;;;28.48;22.05;;;;;;;17.74;92.18;101186.66;4843495;29;20368;-61
2021/09/15 00:15:59;;;;;;;26.38;19.95;;;;;;;17.77;92.29;101182.91;4843365;29;20022;-60
2021/09/15 00:18:24;;;;;;;26.17;20.20;;;;;;;17.80;91.98;101174.66;4843636;29;20025;-60
2021/09/15 00:20:49;;;;;;;25.40;19.10;;;;;;;17.79;91.73;101181.84;4843147;29;20117;-72
2021/09/15 00:23:15;;;;;;;25.48;18.77;;;;;;;17.79;91.75;101170.28;4842719;29;20498;-71
2021/09/15 00:25:40;;;;;;;25.35;19.02;;;;;;;17.79;91.52;101175.66;4843339;29;20094;-61
2021/09/15 00:28:05;;;;;;;26.67;20.20;;;;;;;17.77;91.77;101172.19;4843338;29;20022;-70
2021/09/15 00:30:31;;;;;;;24.50;17.95;;;;;;;17.73;91.52;101168.88;4843055;29;20087;-62
2021/09/15 00:32:56;;;;;;;22.52;18.95;;;;;;;17.75;91.25;101166.97;4843354;29;20053;-64
2021/09/15 00:35:22;;;;;;;29.20;19.98;;;;;;;17.68;91.67;101168.34;4842890;29;20471;-61
2021/09/15 00:37:47;;;;;;;29.27;22.00;;;;;;;17.62;91.77;101172.31;4842862;29;20033;-61
2021/09/15 00:40:12;;;;;;;27.00;19.60;;;;;;;17.57;91.81;101171.78;4843265;29;20085;-63
2021/09/15 00:42:38;;;;;;;28.55;18.90;;;;;;;17.51;92.02;101166.84;4843003;29;20051;-66
2021/09/15 00:45:04;;;;;;;28.10;20.83;;;;;;;17.43;91.86;101170.06;4842822;29;20045;-74
2021/09/15 00:47:30;;;;;;;29.83;20.65;;;;;;;17.42;92.05;101167.50;4841938;29;20034;-60
2021/09/15 00:49:55;;;;;;;30.90;21.60;;;;;;;17.36;92.61;101172.25;4842746;29;20037;-68
2021/09/15 00:52:22;;;;;;;27.83;20.13;;;;;;;17.34;92.63;101166.19;4842827;29;20531;-65
2021/09/15 00:54:47;;;;;;;34.85;24.00;;;;;;;17.36;92.65;101176.78;4842341;29;20495;-60
2021/09/15 00:57:13;;;;;;;38.40;24.98;;;;;;;17.36;93.08;101177.63;4842709;29;20064;-63
2021/09/15 00:59:39;;;;;;;37.80;26.00;;;;;;;17.36;93.32;101168.75;4830711;29;20046;-61
2021/09/15 01:02:05;;;;;;;33.88;23.83;;;;;;;17.31;93.47;101166.38;4824542;29;20034;-64
2021/09/15 01:04:30;;;;;;;37.97;25.90;;;;;;;17.29;93.50;101167.44;4824312;29;20071;-73
2021/09/15 01:06:56;;;;;;;39.65;26.70;;;;;;;17.27;93.42;101158.69;4837921;29;20491;-66
2021/09/15 01:09:22;;;;;;;34.95;25.27;;;;;;;17.27;93.58;101158.69;4842108;29;20030;-62
2021/09/15 01:11:48;;;;;;;39.15;26.25;;;;;;;17.24;93.89;101162.41;4842493;29;20433;-64
2021/09/15 01:14:13;;;;;;;38.92;27.48;;;;;;;17.22;93.95;101166.16;4842164;29;20045;-60
2021/09/15 01:16:59;;;;;;;35.83;24.58;;;;;;;17.20;93.67;101161.75;4842519;29;20112;-61
2021/09/15 01:19:25;;;;;;;37.25;25.88;;;;;;;17.19;94.12;101164.53;4842172;29;20038;-63
2021/09/15 01:21:52;;;;;;;33.28;23.80;;;;;;;17.16;93.75;101168.28;4842294;29;20030;-61
2021/09/15 01:24:19;;;;;;;43.20;27.10;;;;;;;17.11;94.05;101169.53;4841688;29;20045;-71
2021/09/15 01:26:44;;;;;;;35.15;23.67;;;;;;;17.01;93.17;101158.63;4842405;29;20040;-63
2021/09/15 01:29:21;;;;;;;35.33;22.75;;;;;;;16.94;93.55;101160.81;4841709;29;20034;-60
2021/09/15 01:32:02;;;;;;;37.55;25.45;;;;;;;16.90;93.60;101170.00;4842227;29;20033;-61
2021/09/15 01:34:31;;;;;;;35.15;23.60;;;;;;;16.85;93.64;101166.75;4841824;29;20034;-61
2021/09/15 01:36:57;;;;;;;32.90;22.60;;;;;;;16.83;93.34;101158.84;4842062;29;20026;-72
2021/09/15 01:39:23;;;;;;;36.05;24.42;;;;;;;16.80;93.87;101147.50;4841116;29;20041;-72
2021/09/15 01:41:49;;;;;;;37.22;26.40;;;;;;;16.76;93.81;101156.69;4841792;29;20037;-72
2021/09/15 01:44:14;;;;;;;39.17;26.23;;;;;;;16.78;94.51;101152.09;4841783;29;20483;-61
2021/09/15 01:46:40;;;;;;;40.85;27.17;;;;;;;16.81;94.42;101155.41;4840035;29;20069;-67
2021/09/15 01:49:05;;;;;;;44.03;27.27;;;;;;;16.88;94.52;101153.19;4841627;29;20406;-60
2021/09/15 01:51:30;;;;;;;50.55;31.27;;;;;;;16.93;94.47;101150.25;4841687;29;20499;-64
2021/09/15 01:53:55;;;;;;;46.47;29.95;;;;;;;16.97;94.96;101157.09;4841836;29;20479;-65
2021/09/15 01:56:21;;;;;;;47.35;30.42;;;;;;;16.97;95.31;101157.09;4841634;29;20113;-73
2021/09/15 01:58:46;;;;;;;41.67;27.23;;;;;;;16.99;94.75;101147.16;4841345;29;20052;-61
2021/09/15 02:01:11;;;;;;;43.67;28.13;;;;;;;16.99;94.99;101145.31;4841827;29;20034;-65
2021/09/15 02:03:37;;;;;;;46.25;30.30;;;;;;;16.98;95.09;101143.63;4841641;29;20109;-72
2021/09/15 02:06:02;;;;;;;41.35;28.42;;;;;;;16.95;94.79;101146.50;4841554;29;20380;-60
2021/09/15 02:08:28;;;;;;;48.55;31.27;;;;;;;16.91;95.27;101149.50;4841429;29;20105;-63
2021/09/15 02:10:53;;;;;;;42.75;27.73;;;;;;;16.88;95.09;101143.34;4841794;29;20109;-63
2021/09/15 02:13:18;;;;;;;43.83;28.70;;;;;;;16.87;94.79;101146.97;4841829;29;20086;-60
2021/09/15 02:15:45;;;;;;;47.50;29.52;;;;;;;16.85;95.19;101140.00;4841808;29;20471;-63
2021/09/15 02:18:10;;;;;;;46.47;29.40;;;;;;;16.82;94.76;101133.06;4841329;29;20034;-68
2021/09/15 02:20:35;;;;;;;47.05;30.17;;;;;;;16.80;95.22;101135.00;4841407;29;20045;-67
2021/09/15 02:23:02;;;;;;;49.92;31.58;;;;;;;16.79;95.24;101140.41;4841147;29;20472;-69
2021/09/15 02:25:27;;;;;;;48.78;31.27;;;;;;;16.80;95.73;101143.00;4841710;29;20117;-66
2021/09/15 02:27:52;;;;;;;52.50;32.70;;;;;;;16.77;95.52;101137.84;4841329;29;20109;-60
2021/09/15 02:30:18;;;;;;;45.70;30.25;;;;;;;16.74;95.82;101147.88;4841488;29;20051;-74
2021/09/15 02:32:43;;;;;;;50.17;32.92;;;;;;;16.68;95.26;101138.47;4841637;29;20034;-66
2021/09/15 02:35:09;;;;;;;52.67;31.95;;;;;;;16.66;95.50;101145.72;4841437;29;20133;-60
2021/09/15 02:37:34;;;;;;;52.83;33.03;;;;;;;16.65;95.77;101142.19;4841262;29;20034;-62
2021/09/15 02:39:59;;;;;;;48.65;31.58;;;;;;;16.64;95.67;101145.84;4841565;29;20475;-60
2021/09/15 02:42:24;;;;;;;52.58;30.65;;;;;;;16.62;95.87;101141.53;4839867;29;20042;-62
2021/09/15 02:44:50;;;;;;;49.83;31.67;;;;;;;16.60;95.77;101144.31;4841436;29;20117;-61
2021/09/15 02:47:15;;;;;;;50.40;31.05;;;;;;;16.60;95.92;101147.00;4841711;29;20033;-61
2021/09/15 02:49:40;;;;;;;49.40;30.73;;;;;;;16.54;95.57;101140.22;4840825;29;20026;-62
2021/09/15 02:52:06;;;;;;;46.15;27.98;;;;;;;16.50;95.78;101135.19;4841150;29;20105;-73
2021/09/15 02:54:31;;;;;;;44.50;28.00;;;;;;;16.44;95.07;101131.09;4841131;29;20044;-61
2021/09/15 02:56:57;;;;;;;41.05;28.00;;;;;;;16.39;94.45;101119.84;4841719;29;20030;-61
2021/09/15 02:59:22;;;;;;;44.83;27.50;;;;;;;16.31;95.14;101128.34;4841336;29;20379;-60
2021/09/15 03:01:47;;;;;;;54.08;33.67;;;;;;;16.31;95.56;101130.19;4841030;29;20476;-63
2021/09/15 03:04:13;;;;;;;53.22;33.20;;;;;;;16.36;95.90;101130.72;4841008;29;20077;-73
2021/09/15 03:06:38;;;;;;;53.60;33.15;;;;;;;16.40;96.02;101134.06;4841353;29;20441;-71
2021/09/15 03:09:03;;;;;;;49.20;30.70;;;;;;;16.42;95.63;101118.78;4841502;29;20478;-60
2021/09/15 03:11:29;;;;;;;54.35;32.40;;;;;;;16.43;95.53;101128.50;4844187;29;20034;-65
2021/09/15 03:13:54;;;;;;;55.42;34.28;;;;;;;16.42;96.15;101125.00;4844902;29;20463;-68
2021/09/15 03:16:21;;;;;;;59.63;36.47;;;;;;;16.42;96.14;101116.97;4844495;29;20040;-63
2021/09/15 03:18:46;;;;;;;58.85;35.45;;;;;;;16.43;96.19;101120.50;4844596;29;20029;-62
2021/09/15 03:21:12;;;;;;;63.47;38.63;;;;;;;16.49;96.35;101117.44;4844433;29;20026;-74
2021/09/15 03:23:37;;;;;;;75.38;41.17;;;;;;;16.59;96.95;101121.22;4843917;29;20038;-66
2021/09/15 03:26:03;;;;;;;73.93;43.00;;;;;;;16.73;97.28;101106.06;4843747;29;20476;-63
2021/09/15 03:28:28;;;;;;;79.95;43.65;;;;;;;16.82;97.75;101103.63;4844526;29;20037;-60
2021/09/15 03:30:53;;;;;;;63.72;39.63;;;;;;;16.89;97.43;101098.72;4843870;29;20471;-60
2021/09/15 03:33:19;;;;;;;65.30;38.65;;;;;;;16.89;97.12;101096.06;4843961;29;20068;-60
2021/09/15 03:35:44;;;;;;;59.13;35.35;;;;;;;16.84;96.18;101090.16;4844500;29;20034;-61
2021/09/15 03:38:09;;;;;;;51.75;34.08;;;;;;;16.74;95.53;101095.28;4844282;29;20112;-60
2021/09/15 03:40:34;;;;;;;44.70;30.58;;;;;;;16.65;95.52;101106.56;4843842;29;20166;-64
2021/09/15 03:43:00;;;;;;;45.90;28.80;;;;;;;16.53;95.23;101098.44;4843543;29;20030;-61
2021/09/15 03:45:25;;;;;;;64.32;38.08;;;;;;;16.46;95.65;101104.25;4843720;29;20038;-73
2021/09/15 03:47:50;;;;;;;61.85;36.70;;;;;;;16.43;96.18;101107.13;4843767;29;20487;-63
2021/09/15 03:50:16;;;;;;;67.15;38.75;;;;;;;16.48;96.21;101118.38;4842784;29;20041;-65
2021/09/15 03:52:41;;;;;;;79.15;41.83;;;;;;;16.51;96.94;101116.38;4843622;29;20030;-60
2021/09/15 03:55:08;;;;;;;78.72;42.72;;;;;;;16.57;96.96;101123.13;4843660;29;20042;-67
2021/09/15 03:57:33;;;;;;;88.97;46.58;;;;;;;16.60;96.94;101128.28;4843995;29;20034;-74
2021/09/15 03:59:59;;;;;;;76.72;43.88;;;;;;;16.62;96.98;101122.81;4843909;29;20045;-60
2021/09/15 04:02:24;;;;;;;86.13;45.60;;;;;;;16.64;96.90;101110.22;4843753;29;20026;-65
2021/09/15 04:04:49;;;;;;;86.07;46.00;;;;;;;16.63;97.18;101116.53;4842852;29;20046;-60
2021/09/15 04:07:15;;;;;;;85.47;44.90;;;;;;;16.62;97.54;101112.97;4843692;29;20030;-60
2021/09/15 04:09:40;;;;;;;82.60;44.83;;;;;;;16.62;97.36;101120.16;4843363;29;20037;-60
2021/09/15 04:12:05;;;;;;;78.55;43.88;;;;;;;16.62;97.26;101126.34;4843394;29;20038;-68
2021/09/15 04:14:31;;;;;;;87.38;45.40;;;;;;;16.60;97.49;101119.38;4836196;29;20476;-60
2021/09/15 04:16:56;;;;;;;92.80;46.53;;;;;;;16.59;97.48;101120.38;4843733;29;20042;-71
2021/09/15 04:19:21;;;;;;;80.95;45.03;;;;;;;16.58;97.81;101124.84;4843440;29;20026;-72
2021/09/15 04:21:47;;;;;;;73.88;42.78;;;;;;;16.59;97.90;101128.38;4842603;29;20026;-60
2021/09/15 04:31:09;;;;;;;87.43;46.15;;;;;;;16.59;97.98;101123.03;4842662;29;20399;-60
2021/09/15 04:32:28;;;;;;;82.85;44.80;;;;;;;16.51;97.73;101116.38;4843709;29;20444;-73
2021/09/15 04:34:53;;;;;;;87.72;45.03;;;;;;;16.49;98.25;101114.75;4842836;29;20518;-64
2021/09/15 04:37:19;;;;;;;90.20;45.28;;;;;;;16.44;97.90;101115.03;4842773;29;20523;-73
2021/09/15 04:39:44;;;;;;;91.22;47.67;;;;;;;16.45;98.28;101115.91;4843214;29;20130;-69
2021/09/15 04:42:09;;;;;;;97.18;48.08;;;;;;;16.50;98.21;101116.47;4842850;29;20094;-71
2021/09/15 04:44:34;;;;;;;106.07;51.78;;;;;;;16.50;98.64;101114.66;4842919;29;20044;-67
2021/09/15 04:47:00;;;;;;;103.03;50.33;;;;;;;16.55;98.52;101117.03;4842017;29;20030;-60
2021/09/15 04:49:26;;;;;;;101.03;48.40;;;;;;;16.62;98.31;101110.31;4842308;29;20479;-63
2021/09/15 04:51:51;;;;;;;85.60;46.53;;;;;;;16.62;98.60;101114.81;4842462;29;20548;-64
2021/09/15 04:54:17;;;;;;;98.07;48.95;;;;;;;16.60;98.24;101124.72;4832633;29;20507;-61
2021/09/15 04:56:42;;;;;;;91.20;47.95;;;;;;;16.57;98.00;101115.09;4839691;29;20026;-60
2021/09/15 04:59:07;;;;;;;92.80;46.78;;;;;;;16.55;97.94;101119.72;4842960;29;20026;-61
2021/09/15 05:01:32;;;;;;;92.47;45.72;;;;;;;16.53;98.52;101110.91;4842620;29;20037;-61
2021/09/15 05:03:58;;;;;;;95.72;46.53;;;;;;;16.50;98.42;101105.78;4842485;29;20056;-61
2021/09/15 05:06:23;;;;;;;94.18;47.05;;;;;;;16.46;98.43;101102.44;4841996;29;20113;-61
2021/09/15 05:08:48;;;;;;;98.07;47.03;;;;;;;16.46;98.26;101105.13;4839042;29;20034;-61
2021/09/15 05:11:14;;;;;;;93.32;43.90;;;;;;;16.43;98.23;101105.31;4842313;29;20483;-62
2021/09/15 05:13:40;;;;;;;85.78;44.25;;;;;;;16.43;98.63;101109.81;4842451;29;20073;-60
2021/09/15 05:16:06;;;;;;;85.78;44.28;;;;;;;16.42;98.57;101103.63;4842320;29;20105;-67
2021/09/15 05:18:31;;;;;;;91.35;43.92;;;;;;;16.41;98.45;101117.06;4841932;29;20128;-60
2021/09/15 05:20:56;;;;;;;83.68;43.13;;;;;;;16.41;98.18;101117.94;4842247;29;20386;-59
2021/09/15 05:23:22;;;;;;;82.03;43.65;;;;;;;16.45;98.68;101116.75;4839011;29;20041;-64
2021/09/15 05:25:47;;;;;;;99.63;46.92;;;;;;;16.50;99.21;101121.81;4825633;29;20078;-59
2021/09/15 05:28:12;;;;;;;89.38;44.75;;;;;;;16.55;98.95;101123.22;4836064;29;20081;-61
2021/09/15 05:30:38;;;;;;;91.45;45.88;;;;;;;16.64;98.76;101127.13;4842632;29;20026;-56
2021/09/15 05:33:03;;;;;;;92.43;44.53;;;;;;;16.68;99.02;101123.28;4841900;29;20364;-59
2021/09/15 05:35:29;;;;;;;72.38;41.15;;;;;;;16.75;98.92;101118.38;4842253;29;20025;-60
2021/09/15 05:37:54;;;;;;;78.25;44.15;;;;;;;16.80;98.65;101124.28;4832385;29;20049;-61
2021/09/15 05:40:19;;;;;;;82.97;42.53;;;;;;;16.81;98.45;101125.97;4822982;29;20044;-59
2021/09/15 05:42:45;;;;;;;73.70;40.05;;;;;;;16.84;98.32;101122.25;4824038;29;20065;-69
2021/09/15 05:45:10;;;;;;;72.25;39.65;;;;;;;16.85;97.61;101119.50;4820736;29;20038;-53
2021/09/15 05:47:36;;;;;;;70.82;40.65;;;;;;;16.85;97.42;101116.81;4827509;29;20137;-64
2021/09/15 05:50:02;;;;;;;68.28;38.88;;;;;;;16.88;97.59;101126.47;4827005;29;20536;-60
2021/09/15 05:52:27;;;;;;;72.32;37.35;;;;;;;16.96;97.17;101131.31;4840883;29;20041;-64
2021/09/15 05:54:53;;;;;;;66.15;38.03;;;;;;;17.00;96.82;101135.50;4840197;29;20109;-61
2021/09/15 05:57:19;;;;;;;65.55;36.90;;;;;;;17.07;96.93;101143.97;4837509;29;20110;-59
2021/09/15 05:59:44;;;;;;;71.07;38.78;;;;;;;17.09;96.50;101134.03;4837250;29;20109;-67
2021/09/15 06:02:09;;;;;;;67.72;38.33;;;;;;;17.18;96.24;101144.94;4822733;29;20117;-59
2021/09/15 06:04:35;;;;;;;61.40;35.78;;;;;;;17.24;95.86;101149.03;4829325;29;20094;-59
2021/09/15 06:07:00;;;;;;;58.45;36.08;;;;;;;17.30;95.60;101153.09;4835203;29;20048;-60
2021/09/15 06:09:25;;;;;;;60.30;35.17;;;;;;;17.36;94.83;101152.69;4837980;29;20105;-63
2021/09/15 06:11:51;;;;;;;60.35;36.13;;;;;;;17.39;94.72;101162.31;4837042;29;20178;-60
2021/09/15 06:14:16;;;;;;;54.00;33.97;;;;;;;17.50;94.59;101157.09;4837262;29;20417;-68
2021/09/15 06:16:41;;;;;;;55.67;34.92;;;;;;;17.60;93.92;101163.53;4836675;29;20117;-59
2021/09/15 06:19:07;;;;;;;54.42;34.28;;;;;;;17.68;93.64;101163.00;4818681;29;20077;-59
2021/09/15 06:21:32;;;;;;;51.58;32.35;;;;;;;17.71;93.18;101159.22;4812971;29;20030;-61
2021/09/15 06:23:58;;;;;;;53.33;33.17;;;;;;;17.80;92.74;101166.63;4818743;29;20090;-61
2021/09/15 06:26:25;;;;;;;50.40;32.47;;;;;;;17.91;91.71;101157.84;4820329;29;20034;-60
2021/09/15 06:28:52;;;;;;;52.85;33.80;;;;;;;17.98;91.06;101162.69;4818877;29;20049;-60
2021/09/15 06:31:18;;;;;;;55.42;33.10;;;;;;;18.14;91.35;101162.44;4819148;29;20068;-64
2021/09/15 06:33:44;;;;;;;49.85;30.05;;;;;;;18.36;90.17;101162.72;4821779;29;20041;-60
2021/09/15 06:36:09;;;;;;;49.13;30.63;;;;;;;18.43;88.84;101158.63;4836994;29;20030;-64
2021/09/15 06:38:34;;;;;;;45.92;30.02;;;;;;;18.48;87.97;101161.84;4835107;29;20132;-61
2021/09/15 06:41:00;;;;;;;43.92;30.00;;;;;;;18.52;88.16;101149.91;4838769;29;20109;-61
2021/09/15 06:43:26;;;;;;;45.78;28.75;;;;;;;18.75;87.12;101156.25;4836784;29;20113;-61
2021/09/15 06:45:51;;;;;;;41.90;27.50;;;;;;;18.87;86.57;101164.34;4838559;29;20171;-71
2021/09/15 06:48:17;;;;;;;44.45;28.85;;;;;;;19.02;86.25;101165.06;4823141;29;20188;-60
2021/09/15 06:50:43;;;;;;;43.22;27.50;;;;;;;19.21;85.34;101162.69;4822933;29;20053;-73
2021/09/15 06:53:08;;;;;;;41.83;26.67;;;;;;;19.41;83.60;101171.03;4823397;29;20444;-58
2021/09/15 06:55:33;;;;;;;38.97;27.05;;;;;;;19.47;82.72;101173.25;4821842;29;20147;-60
2021/09/15 06:57:58;;;;;;;37.17;24.55;;;;;;;19.44;83.01;101181.56;4821810;29;20444;-61
2021/09/15 07:00:24;;;;;;;35.97;24.33;;;;;;;19.33;82.89;101171.63;4835636;29;20049;-61
2021/09/15 07:02:49;;;;;;;40.20;26.73;;;;;;;19.24;83.08;101172.34;4827887;29;20107;-61
2021/09/15 07:05:14;;;;;;;38.97;25.83;;;;;;;19.15;83.55;101172.03;4826862;29;20480;-71
2021/09/15 07:07:40;;;;;;;36.22;23.52;;;;;;;19.34;83.20;101178.72;4825813;29;20026;-60
2021/09/15 07:10:07;;;;;;;30.02;21.85;;;;;;;19.40;82.64;101177.38;4831227;29;20038;-59
2021/09/15 07:12:33;;;;;;;28.70;20.65;;;;;;;19.28;81.77;101179.19;4821526;29;20030;-64
2021/09/15 07:14:58;;;;;;;27.77;18.90;;;;;;;19.15;81.20;101182.78;4835148;29;20030;-63
2021/09/15 07:17:24;;;;;;;22.20;15.13;;;;;;;18.99;80.32;101182.25;4830831;29;20463;-65
2021/09/15 07:19:49;;;;;;;19.25;13.15;;;;;;;19.02;79.66;101184.69;4820935;29;20095;-75
2021/09/15 07:22:14;;;;;;;16.25;12.60;;;;;;;19.12;78.46;101174.97;4824459;29;20041;-73
2021/09/15 07:24:40;;;;;;;21.23;13.52;;;;;;;19.04;79.07;101181.88;4828189;29;20057;-73
2021/09/15 07:27:05;;;;;;;16.48;11.57;;;;;;;18.96;78.61;101186.03;4838121;29;20038;-70
2021/09/15 07:29:31;;;;;;;15.18;12.15;;;;;;;19.01;79.31;101182.13;4836224;29;20038;-73
2021/09/15 07:31:56;;;;;;;11.55;9.57;;;;;;;19.13;76.53;101183.88;4832525;29;20067;-74
2021/09/15 07:34:21;;;;;;;11.80;9.07;;;;;;;19.25;75.59;101184.78;4832027;29;20487;-68
2021/09/15 07:36:47;;;;;;;12.77;8.50;;;;;;;19.41;74.66;101173.72;4839063;29;20030;-70
2021/09/15 07:39:12;;;;;;;12.65;9.75;;;;;;;19.46;75.35;101180.47;4826220;29;20057;-74
2021/09/15 07:41:37;;;;;;;11.68;7.72;;;;;;;19.37;74.70;101188.38;4830747;29;20444;-69
2021/09/15 07:44:03;;;;;;;13.45;8.48;;;;;;;19.15;75.25;101184.63;4840071;29;20029;-73
2021/09/15 07:46:28;;;;;;;13.68;7.72;;;;;;;18.97;76.37;101171.63;4837745;29;20077;-73
2021/09/15 07:48:54;;;;;;;12.10;7.97;;;;;;;18.80;76.91;101172.84;4841543;29;20056;-72
2021/09/15 07:51:20;;;;;;;12.13;8.57;;;;;;;18.72;77.21;101174.38;4839672;29;20033;-73
2021/09/15 07:53:46;;;;;;;12.23;8.20;;;;;;;18.66;77.81;101181.06;4839389;29;20042;-66
2021/09/15 07:56:12;;;;;;;9.15;7.03;;;;;;;18.59;77.80;101174.44;4828118;29;20053;-71
2021/09/15 07:58:37;;;;;;;9.40;6.10;;;;;;;18.63;76.91;101167.88;4839056;29;20034;-67
2021/09/15 08:01:03;;;;;;;13.30;6.53;;;;;;;18.61;76.46;101180.56;4828563;29;20466;-71
2021/09/15 08:03:28;;;;;;;10.57;6.55;;;;;;;18.66;76.41;101175.72;4833403;29;20137;-73
2021/09/15 08:05:54;;;;;;;9.13;5.32;;;;;;;18.75;75.77;101168.81;4821127;29;20118;-70
2021/09/15 08:08:20;;;;;;;9.23;5.15;;;;;;;18.73;74.96;101166.22;4833582;29;20472;-72
2021/09/15 08:10:46;;;;;;;9.65;5.97;;;;;;;18.78;75.78;101173.94;4838494;29;20149;-70
2021/09/15 08:13:11;;;;;;;8.40;4.82;;;;;;;18.90;74.68;101169.50;4839104;29;20149;-71
2021/09/15 08:15:37;;;;;;;7.07;4.53;;;;;;;18.97;74.25;101158.19;4840119;29;20412;-64
2021/09/15 08:18:02;;;;;;;10.43;4.88;;;;;;;19.07;74.01;101155.69;4838976;29;20903;-69
2021/09/15 08:20:28;;;;;;;10.73;4.32;;;;;;;19.39;72.47;101152.34;4838602;29;20042;-70
2021/09/15 08:22:53;;;;;;;8.43;4.63;;;;;;;19.21;71.66;101157.31;4839261;29;20109;-71
2021/09/15 08:25:19;;;;;;;9.43;4.47;;;;;;;19.12;73.15;101149.97;4835287;29;20038;-71
2021/09/15 08:27:44;;;;;;;7.78;4.25;;;;;;;19.04;72.46;101155.94;4835117;29;20069;-63
2021/09/15 08:30:11;;;;;;;7.28;3.92;;;;;;;19.03;72.98;101151.53;4826715;29;20041;-61
2021/09/15 08:32:36;;;;;;;9.93;4.00;;;;;;;18.98;72.30;101159.06;4837704;29;20125;-72
2021/09/15 08:35:03;;;;;;;8.60;3.70;;;;;;;19.09;72.28;101152.88;4838198;29;20117;-63
2021/09/15 08:37:35;;;;;;;9.07;3.92;;;;;;;19.07;72.21;101150.31;4838143;29;20121;-72
2021/09/15 08:40:00;;;;;;;7.18;4.05;;;;;;;19.13;73.02;101155.22;4816441;29;20110;-67
2021/09/15 08:42:26;;;;;;;8.90;4.30;;;;;;;19.14;73.31;101156.94;4834329;29;20032;-68
2021/09/15 08:44:51;;;;;;;8.18;3.80;;;;;;;19.11;73.48;101165.22;4835610;29;20073;-67
2021/09/15 08:47:17;;;;;;;12.52;4.60;;;;;;;19.07;73.55;101166.41;4837009;29;20463;-70
2021/09/15 08:49:44;;;;;;;7.88;2.67;;;;;;;19.07;71.99;101177.16;4836913;29;20125;-65
2021/09/15 08:52:09;;;;;;;12.90;3.40;;;;;;;19.02;72.14;101171.28;4841281;29;20046;-65
2021/09/15 08:54:34;;;;;;;19.98;4.53;;;;;;;18.81;73.63;101187.13;4831770;29;20086;-60
2021/09/15 08:57:00;;;;;;;5.15;1.73;;;;;;;18.90;72.57;101191.84;4834481;29;20034;-70
2021/09/15 08:59:25;;;;;;;7.43;2.05;;;;;;;18.89;72.62;101187.41;4841240;29;20372;-63
2021/09/15 09:02:09;;;;;;;7.40;2.15;;;;;;;18.93;73.22;101182.72;4840998;29;20108;-59
2021/09/15 09:04:54;;;;;;;7.65;2.13;;;;;;;18.87;73.44;101177.78;4819405;29;20050;-61
2021/09/15 09:07:21;;;;;;;7.72;2.03;;;;;;;19.04;73.02;101193.50;4840412;29;20171;-60
2021/09/15 09:09:48;;;;;;;5.50;1.50;;;;;;;18.99;72.00;101182.25;4840948;29;20056;-60
2021/09/15 09:12:18;;;;;;;4.18;1.55;;;;;;;19.06;72.19;101190.69;4840889;29;20030;-58
2021/09/15 09:14:44;;;;;;;5.15;1.75;;;;;;;18.94;73.29;101179.91;4805064;29;20038;-63
2021/09/15 09:17:33;;;;;;;6.32;2.08;;;;;;;19.01;72.97;101190.19;4805488;29;20062;-61
2021/09/15 09:20:18;;;;;;;4.10;1.60;;;;;;;19.00;73.60;101186.63;4804707;29;20053;-60
2021/09/15 09:23:05;;;;;;;7.65;1.70;;;;;;;19.23;72.58;101186.72;4810271;29;20037;-55
2021/09/15 09:25:37;;;;;;;4.60;1.63;;;;;;;19.42;71.24;101184.34;4841630;29;20029;-59
2021/09/15 09:28:15;;;;;;;;;;;;;;;19.32;72.05;101181.53;4842154;29;20498;-62
2021/09/15 09:30:42;;;;;;;5.15;1.83;;;;;;;19.27;71.75;101189.06;4840896;29;19920;-60
2021/09/15 09:33:08;;;;;;;6.85;2.40;;;;;;;19.34;72.14;101191.28;4837725;29;20034;-59
2021/09/15 09:35:44;;;;;;;4.65;1.55;;;;;;;19.22;71.90;101195.75;4840173;29;20032;-59
2021/09/15 09:38:18;;;;;;;6.78;1.80;;;;;;;19.29;71.36;101194.31;4841201;29;20037;-61
2021/09/15 09:41:16;;;;;;;9.70;1.55;;;;;;;19.20;71.61;101198.56;4840703;29;20033;-66
2021/09/15 09:43:49;;;;;;;6.07;2.10;;;;;;;19.15;72.50;101201.56;4783206;29;20055;-64
2021/09/15 09:46:20;;;;;;;7.80;1.90;;;;;;;19.26;72.13;101202.59;4783487;30;20095;-61
2021/09/15 09:48:45;;;;;;;;;;;;;;;19.32;71.74;101203.00;4784559;29;20053;-61
2021/09/15 09:51:25;;;;;;;6.70;1.93;;;;;;;19.27;71.77;101218.59;4784006;30;19917;-61
2021/09/15 09:54:05;;;;;;;8.90;2.00;;;;;;;19.29;71.88;101213.13;4784653;30;20399;-63
2021/09/15 09:56:31;;;;;;;5.38;1.75;;;;;;;19.27;71.62;101213.25;4783962;30;20081;-61
2021/09/15 09:58:57;;;;;;;9.30;2.15;;;;;;;19.38;71.36;101215.09;4784129;30;20059;-60
2021/09/15 10:01:23;;;;;;;5.75;1.90;;;;;;;19.28;71.96;101222.13;4783365;30;20142;-61
2021/09/15 10:03:49;;;;;;;5.57;1.75;;;;;;;19.36;70.99;101217.06;4783095;30;20035;-60
2021/09/15 10:06:15;;;;;;;6.57;2.00;;;;;;;19.38;72.03;101225.00;4783814;30;20120;-59
2021/09/15 10:08:41;;;;;;;8.07;2.35;;;;;;;19.35;71.98;101222.53;4784332;30;20101;-60
2021/09/15 10:11:08;;;;;;;8.02;2.30;;;;;;;19.43;72.13;101217.44;4783618;30;20117;-66
2021/09/15 10:13:33;;;;;;;9.10;2.13;;;;;;;19.44;71.73;101211.94;4784301;30;20050;-62
2021/09/15 10:16:03;;;;;;;9.05;2.42;;;;;;;19.37;72.00;101224.13;4784278;30;20432;-60
2021/09/15 10:18:29;;;;;;;7.18;2.30;;;;;;;19.29;73.12;101210.44;4783946;29;20039;-59
2021/09/15 10:20:57;;;;;;;4.30;1.77;;;;;;;19.47;72.14;101214.38;4837534;29;20064;-61
2021/09/15 10:23:48;;;;;;;11.45;2.15;;;;;;;19.77;71.60;101214.81;4845147;29;20037;-60
2021/09/15 10:26:25;;;;;;;9.77;2.43;;;;;;;20.01;70.71;101208.53;4844058;29;20037;-69
2021/09/15 10:29:21;;;;;;;5.70;2.00;;;;;;;20.18;69.90;101200.00;4844090;29;20117;-59
2021/09/15 10:32:09;;;;;;;8.07;1.90;;;;;;;20.35;68.21;101198.63;4843822;29;20022;-60
2021/09/15 10:34:38;;;;;;;8.00;1.90;;;;;;;20.48;67.84;101201.19;4844503;29;20022;-68
2021/09/15 10:37:12;;;;;;;7.05;1.98;;;;;;;20.66;67.63;101203.34;4827257;29;20030;-61
2021/09/15 10:40:10;;;;;;;7.93;2.25;;;;;;;20.61;67.94;101209.09;4824425;29;20049;-60
2021/09/15 10:42:39;;;;;;;8.90;2.30;;;;;;;20.65;66.98;101215.09;4787234;30;20043;-62
2021/09/15 10:45:13;;;;;;;8.07;2.05;;;;;;;20.51;68.75;101213.53;4787047;30;20152;-64
2021/09/15 10:47:41;;;;;;;6.22;2.22;;;;;;;20.35;67.73;101213.91;4769853;30;20051;-61
2021/09/15 10:50:08;;;;;;;9.43;2.70;;;;;;;20.28;70.05;101217.09;4769583;30;20036;-60
2021/09/15 10:52:39;;;;;;;6.03;2.30;;;;;;;20.26;68.55;101215.50;4769649;30;20063;-61
2021/09/15 10:55:23;;;;;;;8.45;2.15;;;;;;;20.17;68.86;101216.22;4770127;30;20032;-61
2021/09/15 10:57:49;;;;;;;8.18;2.40;;;;;;;20.12;68.96;101222.81;4771571;30;20192;-59
2021/09/15 11:00:18;;;;;;;11.25;2.63;;;;;;;20.05;69.59;101215.38;4768331;30;20051;-61
2021/09/15 11:02:48;;;;;;;7.15;2.50;;;;;;;20.04;69.41;101219.91;4778109;30;20039;-60
2021/09/15 11:05:25;;;;;;;5.25;2.53;;;;;;;20.00;69.46;101214.88;4786446;30;20153;-60
2021/09/15 11:07:50;;;;;;;6.88;2.42;;;;;;;20.03;69.52;101220.03;4784406;30;20039;-61
2021/09/15 11:10:31;;;;;;;4.15;2.13;;;;;;;20.01;69.39;101222.81;4774114;29;20577;-73
2021/09/15 11:12:56;;;;;;;6.30;2.30;;;;;;;20.00;69.18;101222.94;4769720;30;20207;-71
2021/09/15 11:15:30;;;;;;;6.45;2.53;;;;;;;19.96;69.81;101235.75;4769488;30;20114;-60
2021/09/15 11:17:56;;;;;;;6.72;2.58;;;;;;;19.81;70.10;101224.38;4771366;30;20082;-59
2021/09/15 11:20:23;;;;;;;5.70;2.50;;;;;;;19.60;71.18;101225.06;4818413;29;20062;-60